Terminal Aerodrome Forecast
Issued by NWS

Home | Current Version | Previous Version | Text Only | Print | Product List | Glossary On
Versions: 1 2 3 4 5 6 7 8 9 10 11 12 13 14 15 16 17
000
FTUS45 KBOI 241737
TAFBKE
TAF
KBKE 241737Z 2418/2518 21005KT 3SM -SN BR OVC015
     FM241900 VRB06KT P6SM VCSH SCT015 BKN035
      TEMPO 2419/2423 31015G25KT 1SM -SHSNPL OVC015
     FM250000 30012KT P6SM BKN040
     FM251200 12010KT 5SM -SN BR OVC030=

USA.gov is the U.S. government's official web portal to all federal, state and local government web resources and services.